createdAt,value
2023-05-09T00:00:57.210Z,98.50
2023-05-09T00:03:24.119Z,98.50
2023-05-09T00:05:50.989Z,98.50
2023-05-09T00:08:17.686Z,98.50
2023-05-09T00:10:44.335Z,98.50
2023-05-09T00:13:12.168Z,98.50
2023-05-09T00:15:38.974Z,98.50
2023-05-09T00:18:05.760Z,98.50
2023-05-09T00:20:34.234Z,98.50
2023-05-09T00:23:00.933Z,98.50
2023-05-09T00:25:27.662Z,98.50
2023-05-09T00:27:54.540Z,98.50
2023-05-09T00:30:21.260Z,98.50
2023-05-09T00:32:47.956Z,98.50
2023-05-09T00:35:14.972Z,98.50
2023-05-09T00:37:41.833Z,98.50
2023-05-09T00:40:09.241Z,98.50
2023-05-09T00:42:36.724Z,98.50
2023-05-09T00:45:03.689Z,98.50
2023-05-09T00:47:30.993Z,98.50
2023-05-09T00:49:58.243Z,98.50
2023-05-09T00:52:26.422Z,98.50
2023-05-09T00:54:54.022Z,98.50
2023-05-09T00:57:20.903Z,98.50
2023-05-09T00:59:48.259Z,98.50
2023-05-09T01:02:17.420Z,98.50
2023-05-09T01:04:46.254Z,98.50
2023-05-09T01:07:23.008Z,98.50
2023-05-09T01:10:11.630Z,98.50
2023-05-09T01:13:12.608Z,98.50
2023-05-09T01:15:59.886Z,98.50
2023-05-09T01:18:36.923Z,98.50
2023-05-09T01:21:11.575Z,98.50
2023-05-09T01:23:44.517Z,98.50
2023-05-09T01:26:13.639Z,98.50
2023-05-09T01:29:17.995Z,98.50
2023-05-09T01:31:47.599Z,98.50
2023-05-09T01:34:16.395Z,98.50
2023-05-09T01:36:44.185Z,98.50
2023-05-09T01:39:13.325Z,98.50
2023-05-09T01:41:40.425Z,98.50
2023-05-09T01:44:12.201Z,98.50
2023-05-09T01:46:40.042Z,98.50
2023-05-09T01:49:09.745Z,98.50
2023-05-09T01:51:38.235Z,98.50
2023-05-09T01:54:06.881Z,98.50
2023-05-09T01:57:00.435Z,98.50
2023-05-09T01:59:29.488Z,98.50
2023-05-09T02:01:56.795Z,98.50
2023-05-09T02:04:25.013Z,98.50
2023-05-09T02:06:53.311Z,98.50
2023-05-09T02:09:21.335Z,98.50
2023-05-09T02:11:48.036Z,98.50
2023-05-09T02:14:15.251Z,98.50
2023-05-09T02:16:42.459Z,98.50
2023-05-09T02:19:09.224Z,98.50
2023-05-09T02:21:36.224Z,98.50
2023-05-09T02:24:03.664Z,98.50
2023-05-09T02:26:31.574Z,98.50
2023-05-09T02:28:59.189Z,98.50
2023-05-09T02:31:28.600Z,98.50
2023-05-09T02:33:56.640Z,98.50
2023-05-09T02:36:24.082Z,98.50
2023-05-09T02:38:51.471Z,98.50
2023-05-09T02:41:18.348Z,98.50
2023-05-09T02:43:46.019Z,98.50
2023-05-09T02:46:12.961Z,98.50
2023-05-09T02:48:40.757Z,98.50
2023-05-09T02:51:07.535Z,98.50
2023-05-09T02:53:34.343Z,98.50
2023-05-09T02:56:01.088Z,98.50
2023-05-09T02:58:27.864Z,98.50
2023-05-09T03:00:54.606Z,98.50
2023-05-09T03:03:23.717Z,98.50
2023-05-09T03:05:50.739Z,98.50
2023-05-09T03:08:17.443Z,98.50
2023-05-09T03:10:44.236Z,98.50
2023-05-09T03:13:11.586Z,98.50
2023-05-09T03:15:38.311Z,98.50
2023-05-09T03:18:05.127Z,98.50
2023-05-09T03:20:32.096Z,98.50
2023-05-09T03:22:58.836Z,98.50
2023-05-09T03:25:27.507Z,98.50
2023-05-09T03:27:55.453Z,98.50
2023-05-09T03:30:22.189Z,98.50
2023-05-09T03:32:52.290Z,98.50
2023-05-09T03:35:19.168Z,98.50
2023-05-09T03:37:46.887Z,98.50
2023-05-09T03:40:13.798Z,98.50
2023-05-09T03:42:40.852Z,98.50
2023-05-09T03:45:08.163Z,98.50
2023-05-09T03:47:35.254Z,98.50
2023-05-09T03:50:02.019Z,98.50
2023-05-09T03:52:28.725Z,98.50
2023-05-09T03:54:55.559Z,98.50
2023-05-09T03:57:22.416Z,98.50
2023-05-09T03:59:49.205Z,98.50
2023-05-09T04:02:16.413Z,98.50
2023-05-09T04:04:43.306Z,98.50
2023-05-09T04:07:10.320Z,98.50
2023-05-09T04:09:38.124Z,98.50
2023-05-09T04:12:44.224Z,98.50
2023-05-09T04:15:16.139Z,98.50
2023-05-09T04:17:49.828Z,98.50
2023-05-09T04:20:18.573Z,98.50
2023-05-09T04:22:50.359Z,98.50
2023-05-09T04:25:18.437Z,98.50
2023-05-09T04:27:45.552Z,98.50
2023-05-09T04:33:01.937Z,98.50
2023-05-09T04:35:29.122Z,98.50
2023-05-09T04:37:56.055Z,98.50
2023-05-09T04:40:24.330Z,98.50
2023-05-09T04:42:53.703Z,98.50
2023-05-09T04:45:20.447Z,98.50
2023-05-09T04:47:48.305Z,98.50
2023-05-09T04:50:17.061Z,98.50
2023-05-09T04:52:44.141Z,98.50
2023-05-09T04:55:11.046Z,98.50
2023-05-09T04:57:38.651Z,98.50
2023-05-09T05:00:19.001Z,98.50
2023-05-09T05:02:48.172Z,98.50
2023-05-09T05:05:14.991Z,98.50
2023-05-09T05:07:41.724Z,98.50
2023-05-09T05:10:08.843Z,98.50
2023-05-09T05:12:35.704Z,98.50
2023-05-09T05:15:02.459Z,98.50
2023-05-09T05:17:29.534Z,98.50
2023-05-09T05:19:56.346Z,98.50
2023-05-09T05:22:23.090Z,98.50
2023-05-09T05:24:49.868Z,98.50
2023-05-09T05:27:16.523Z,98.50
2023-05-09T05:29:43.184Z,98.50
2023-05-09T05:32:10.665Z,98.50
2023-05-09T05:34:39.453Z,98.50
2023-05-09T05:37:06.235Z,98.50
2023-05-09T05:39:32.910Z,98.50
2023-05-09T05:41:59.620Z,98.50
2023-05-09T05:44:26.311Z,98.50
2023-05-09T05:46:52.952Z,98.50
2023-05-09T05:49:23.293Z,98.50
2023-05-09T05:51:50.050Z,98.50
2023-05-09T05:54:16.718Z,98.50
2023-05-09T05:56:43.363Z,98.50
2023-05-09T05:59:12.522Z,98.50
2023-05-09T06:01:39.925Z,98.50
2023-05-09T06:04:06.745Z,98.50
2023-05-09T06:06:34.151Z,98.50
2023-05-09T06:09:00.897Z,98.50
2023-05-09T06:11:27.537Z,97.20
2023-05-09T06:13:54.274Z,98.50
2023-05-09T06:16:21.368Z,98.50
2023-05-09T06:18:48.612Z,98.50
2023-05-09T06:21:15.308Z,98.50
2023-05-09T06:23:51.023Z,97.90
2023-05-09T06:26:28.674Z,98.50
2023-05-09T06:28:56.113Z,97.90
2023-05-09T06:31:25.411Z,97.50
2023-05-09T06:33:52.669Z,98.10
2023-05-09T06:36:19.369Z,97.70
2023-05-09T06:38:46.241Z,96.90
2023-05-09T06:41:12.911Z,96.40
2023-05-09T06:43:39.819Z,95.50
2023-05-09T06:46:06.555Z,94.50
2023-05-09T06:48:33.218Z,94.40
2023-05-09T06:50:59.848Z,94.70
2023-05-09T06:53:26.472Z,94.10
2023-05-09T06:55:53.364Z,94.20
2023-05-09T06:58:20.047Z,94.00
2023-05-09T07:00:47.702Z,93.40
2023-05-09T07:03:14.430Z,94.10
2023-05-09T07:05:41.171Z,93.10
2023-05-09T07:08:07.950Z,92.40
2023-05-09T07:10:34.890Z,91.70
2023-05-09T07:13:01.720Z,91.10
2023-05-09T07:15:40.479Z,91.90
2023-05-09T07:18:09.190Z,91.10
2023-05-09T07:20:36.032Z,91.00
2023-05-09T07:23:05.983Z,90.30
2023-05-09T07:25:32.711Z,91.00
2023-05-09T07:27:59.359Z,90.70
2023-05-09T07:30:26.148Z,91.00
2023-05-09T07:32:53.112Z,90.20
2023-05-09T07:35:21.041Z,89.40
2023-05-09T07:37:47.683Z,89.00
2023-05-09T07:40:14.995Z,89.70
2023-05-09T07:42:45.082Z,89.70
2023-05-09T07:45:11.994Z,91.90
2023-05-09T07:47:38.769Z,92.10
2023-05-09T07:50:06.296Z,91.90
2023-05-09T07:52:33.130Z,91.10
2023-05-09T07:54:59.804Z,91.60
2023-05-09T07:57:26.653Z,91.30
2023-05-09T07:59:53.325Z,92.10
2023-05-09T08:02:20.050Z,91.80
2023-05-09T08:04:48.832Z,92.40
2023-05-09T08:07:15.832Z,93.10
2023-05-09T08:09:42.549Z,93.60
2023-05-09T08:12:09.236Z,93.90
2023-05-09T08:14:35.885Z,95.00
2023-05-09T08:17:02.530Z,94.20
2023-05-09T08:19:29.209Z,94.00
2023-05-09T08:21:55.949Z,94.80
2023-05-09T08:24:22.679Z,95.20
2023-05-09T08:26:49.354Z,94.50
2023-05-09T08:29:17.432Z,95.20
2023-05-09T08:31:44.293Z,94.60
2023-05-09T08:34:11.104Z,95.30
2023-05-09T08:36:37.774Z,94.90
2023-05-09T08:39:04.427Z,94.80
2023-05-09T08:41:35.931Z,94.00
2023-05-09T08:44:03.324Z,94.00
2023-05-09T08:46:35.671Z,93.50
2023-05-09T08:49:06.905Z,93.80
2023-05-09T08:51:34.465Z,95.60
2023-05-09T08:54:01.369Z,93.90
2023-05-09T08:56:29.805Z,92.30
2023-05-09T08:58:56.621Z,92.30
2023-05-09T09:01:24.457Z,92.30
2023-05-09T09:03:51.939Z,92.20
2023-05-09T09:06:21.508Z,92.00
2023-05-09T09:08:49.050Z,91.10
2023-05-09T09:11:17.220Z,90.30
2023-05-09T09:13:45.287Z,91.20
2023-05-09T09:16:20.443Z,90.70
2023-05-09T09:18:47.441Z,90.20
2023-05-09T09:21:17.093Z,90.00
2023-05-09T09:23:47.305Z,90.50
2023-05-09T09:26:14.223Z,88.70
2023-05-09T09:28:41.581Z,89.10
2023-05-09T09:31:21.500Z,90.20
2023-05-09T09:33:49.175Z,90.20
2023-05-09T09:36:16.124Z,90.40
2023-05-09T09:38:43.897Z,89.40
2023-05-09T09:41:12.644Z,88.70
2023-05-09T09:43:44.103Z,91.00
2023-05-09T09:46:10.841Z,90.00
2023-05-09T09:48:38.234Z,90.80
2023-05-09T09:51:12.633Z,92.00
2023-05-09T09:53:40.853Z,91.80
2023-05-09T09:56:08.395Z,91.40
2023-05-09T09:58:35.494Z,92.20
2023-05-09T10:01:10.564Z,90.10
2023-05-09T10:03:42.144Z,91.30
2023-05-09T10:06:16.710Z,90.60
2023-05-09T10:08:48.796Z,91.50
2023-05-09T10:11:15.913Z,90.60
2023-05-09T10:13:44.470Z,90.30
2023-05-09T10:16:12.738Z,88.30
2023-05-09T10:18:42.575Z,88.50
2023-05-09T10:21:14.421Z,88.80
2023-05-09T10:23:45.017Z,88.90
2023-05-09T10:26:27.537Z,89.50
2023-05-09T10:29:00.631Z,90.60
2023-05-09T10:31:29.739Z,89.80
2023-05-09T10:33:57.146Z,90.20
2023-05-09T10:36:24.815Z,91.80
2023-05-09T10:38:54.031Z,91.60
2023-05-09T10:41:25.760Z,91.70
2023-05-09T10:43:55.526Z,92.40
2023-05-09T10:46:23.265Z,90.90
2023-05-09T10:48:50.532Z,91.80
2023-05-09T10:51:17.560Z,93.70
2023-05-09T10:53:46.181Z,91.70
2023-05-09T10:56:26.929Z,92.50
2023-05-09T10:58:54.528Z,90.70
2023-05-09T11:01:34.673Z,88.90
2023-05-09T11:04:09.930Z,88.10
2023-05-09T11:06:54.016Z,88.40
2023-05-09T11:09:29.289Z,89.50
2023-05-09T11:11:58.675Z,89.20
2023-05-09T11:14:32.680Z,88.50
2023-05-09T11:17:05.013Z,88.00
2023-05-09T11:19:46.572Z,86.70
2023-05-09T11:22:14.423Z,87.30
2023-05-09T11:25:05.010Z,86.40
2023-05-09T11:27:42.390Z,85.80
2023-05-09T11:30:14.623Z,85.60
2023-05-09T11:32:47.365Z,85.30
2023-05-09T11:35:20.302Z,84.80
2023-05-09T11:37:58.031Z,85.60
2023-05-09T11:40:24.809Z,87.40
2023-05-09T11:42:58.458Z,85.90
2023-05-09T11:45:30.358Z,87.30
2023-05-09T11:47:58.152Z,87.20
2023-05-09T11:50:25.287Z,86.00
2023-05-09T11:52:53.847Z,86.60
2023-05-09T11:55:32.600Z,85.40
2023-05-09T11:57:59.432Z,86.00
2023-05-09T12:00:26.623Z,86.40
2023-05-09T12:02:54.049Z,86.10
2023-05-09T12:05:22.776Z,87.20
2023-05-09T12:07:52.417Z,84.80
2023-05-09T12:10:23.263Z,85.00
2023-05-09T12:12:52.206Z,84.20
2023-05-09T12:15:21.300Z,83.50
2023-05-09T12:18:00.646Z,84.00
2023-05-09T12:20:27.379Z,82.00
2023-05-09T12:22:54.603Z,83.10
2023-05-09T12:25:22.631Z,84.90
2023-05-09T12:27:49.433Z,84.10
2023-05-09T12:30:18.481Z,83.40
2023-05-09T12:32:46.575Z,85.90
2023-05-09T12:35:13.429Z,84.50
2023-05-09T12:37:40.270Z,83.90
2023-05-09T12:40:12.243Z,81.10
2023-05-09T12:42:39.667Z,81.90
2023-05-09T12:45:08.797Z,81.20
2023-05-09T12:47:35.673Z,81.70
2023-05-09T12:50:04.281Z,80.30
2023-05-09T12:52:50.213Z,80.30
2023-05-09T12:55:25.517Z,81.80
2023-05-09T12:58:03.254Z,79.40
2023-05-09T13:00:44.914Z,83.10
2023-05-09T13:03:27.227Z,80.70
2023-05-09T13:05:56.191Z,80.70
2023-05-09T13:08:23.152Z,81.30
2023-05-09T13:10:51.132Z,82.00
2023-05-09T13:13:21.783Z,82.20
2023-05-09T13:15:48.928Z,82.10
2023-05-09T13:18:15.693Z,81.30
2023-05-09T13:20:42.392Z,81.30
2023-05-09T13:23:09.190Z,81.30
2023-05-09T13:25:36.181Z,80.90
2023-05-09T13:28:04.721Z,80.40
2023-05-09T13:30:32.554Z,81.20
2023-05-09T13:33:06.272Z,81.30
2023-05-09T13:35:39.711Z,81.80
2023-05-09T13:38:06.489Z,83.00
2023-05-09T13:40:33.100Z,81.80
2023-05-09T13:42:59.779Z,82.30
2023-05-09T13:45:26.461Z,82.30
2023-05-09T13:47:53.163Z,82.40
2023-05-09T13:50:19.853Z,82.10
2023-05-09T13:52:46.557Z,81.70
2023-05-09T13:55:13.353Z,81.20
2023-05-09T13:57:40.011Z,81.80
2023-05-09T14:00:07.869Z,80.70
2023-05-09T14:02:34.559Z,81.80
2023-05-09T14:05:03.123Z,81.40
2023-05-09T14:07:29.886Z,81.70
2023-05-09T14:10:10.539Z,81.80
2023-05-09T14:12:39.584Z,81.30
2023-05-09T14:15:08.118Z,81.60
2023-05-09T14:17:34.986Z,80.00
2023-05-09T14:20:01.844Z,80.80
2023-05-09T14:22:28.495Z,83.20
2023-05-09T14:24:57.279Z,83.00
2023-05-09T14:27:24.910Z,81.80
2023-05-09T14:29:51.593Z,81.00
2023-05-09T14:32:18.290Z,80.70
2023-05-09T14:34:45.623Z,81.30
2023-05-09T14:37:15.082Z,81.30
2023-05-09T14:39:42.523Z,81.70
2023-05-09T14:42:11.407Z,81.20
2023-05-09T14:44:38.676Z,81.70
2023-05-09T14:47:05.853Z,81.30
2023-05-09T14:49:32.869Z,81.70
2023-05-09T14:51:59.893Z,81.80
2023-05-09T14:54:26.565Z,80.80
2023-05-09T14:56:53.217Z,79.80
2023-05-09T14:59:19.913Z,79.60
2023-05-09T15:01:46.966Z,81.20
2023-05-09T15:04:13.725Z,80.40
2023-05-09T15:06:40.964Z,79.60
2023-05-09T15:09:07.784Z,79.80
2023-05-09T15:11:46.737Z,81.10
2023-05-09T15:14:14.973Z,81.00
2023-05-09T15:16:41.791Z,80.60
2023-05-09T15:19:08.718Z,82.20
2023-05-09T15:21:35.632Z,80.10
2023-05-09T15:24:02.546Z,82.00
2023-05-09T15:26:29.972Z,81.70
2023-05-09T15:28:56.648Z,81.80
2023-05-09T15:31:24.797Z,81.60
2023-05-09T15:33:52.073Z,81.00
2023-05-09T15:36:18.778Z,81.20
2023-05-09T15:38:49.095Z,82.40
2023-05-09T15:41:16.630Z,81.50
2023-05-09T15:43:43.316Z,83.20
2023-05-09T15:46:10.015Z,83.50
2023-05-09T15:48:36.699Z,83.50
2023-05-09T15:51:04.184Z,83.40
2023-05-09T15:53:31.103Z,83.60
2023-05-09T15:55:57.968Z,83.60
2023-05-09T15:58:24.856Z,83.00
2023-05-09T16:00:51.677Z,83.50
2023-05-09T16:03:18.842Z,84.40
2023-05-09T16:05:45.647Z,85.10
2023-05-09T16:08:12.546Z,85.00
2023-05-09T16:10:39.588Z,84.60
2023-05-09T16:13:07.562Z,85.20
2023-05-09T16:15:34.450Z,85.30
2023-05-09T16:18:01.184Z,85.90
2023-05-09T16:20:27.863Z,86.70
2023-05-09T16:22:54.506Z,86.40
2023-05-09T16:25:21.325Z,86.60
2023-05-09T16:27:47.961Z,85.20
2023-05-09T16:30:15.380Z,85.80
2023-05-09T16:32:42.834Z,86.60
2023-05-09T16:35:10.216Z,86.60
2023-05-09T16:37:37.339Z,87.40
2023-05-09T16:40:04.493Z,88.00
2023-05-09T16:42:31.235Z,88.00
2023-05-09T16:44:58.025Z,87.90
2023-05-09T16:47:24.994Z,88.50
2023-05-09T16:49:51.669Z,88.90
2023-05-09T16:52:18.443Z,89.20
2023-05-09T16:54:45.244Z,89.80
2023-05-09T16:57:13.274Z,89.40
2023-05-09T16:59:40.194Z,89.50
2023-05-09T17:02:08.524Z,89.50
2023-05-09T17:04:37.559Z,90.00
2023-05-09T17:07:04.699Z,90.60
2023-05-09T17:09:32.416Z,91.10
2023-05-09T17:12:00.524Z,91.40
2023-05-09T17:14:27.428Z,90.60
2023-05-09T17:16:54.179Z,91.10
2023-05-09T17:19:23.343Z,90.90
2023-05-09T17:21:50.232Z,91.00
2023-05-09T17:24:17.356Z,90.40
2023-05-09T17:26:44.152Z,90.70
2023-05-09T17:29:10.939Z,91.30
2023-05-09T17:31:37.720Z,91.20
2023-05-09T17:34:05.426Z,90.30
2023-05-09T17:36:33.473Z,89.90
2023-05-09T17:39:00.726Z,90.60
2023-05-09T17:41:27.662Z,90.60
2023-05-09T17:43:57.295Z,90.80
2023-05-09T17:46:24.551Z,91.40
2023-05-09T17:48:51.442Z,91.90
2023-05-09T17:51:18.132Z,92.10
2023-05-09T17:53:44.934Z,92.30
2023-05-09T17:56:11.583Z,91.90
2023-05-09T17:58:38.220Z,92.20
2023-05-09T18:01:05.412Z,92.80
2023-05-09T18:03:32.561Z,92.60
2023-05-09T18:06:00.387Z,92.80
2023-05-09T18:08:27.474Z,92.10
2023-05-09T18:10:56.824Z,92.30
2023-05-09T18:13:23.644Z,92.60
2023-05-09T18:15:50.540Z,93.00
2023-05-09T18:18:17.268Z,93.00
2023-05-09T18:20:46.292Z,91.90
2023-05-09T18:23:14.635Z,92.30
2023-05-09T18:25:41.908Z,91.90
2023-05-09T18:28:08.582Z,91.70
2023-05-09T18:30:36.131Z,91.50
2023-05-09T18:33:03.092Z,92.30
2023-05-09T18:35:29.935Z,92.00
2023-05-09T18:37:56.675Z,92.20
2023-05-09T18:40:23.341Z,92.40
2023-05-09T18:42:50.032Z,92.90
2023-05-09T18:45:16.742Z,93.00
2023-05-09T18:47:43.389Z,92.70
2023-05-09T18:50:10.740Z,93.20
2023-05-09T18:52:37.498Z,93.40
2023-05-09T18:55:05.779Z,93.70
2023-05-09T18:57:33.865Z,94.10
2023-05-09T19:00:00.708Z,93.90
2023-05-09T19:02:27.497Z,93.90
2023-05-09T19:04:54.333Z,94.60
2023-05-09T19:07:20.986Z,94.40
2023-05-09T19:09:47.739Z,94.60
2023-05-09T19:12:16.315Z,94.80
2023-05-09T19:14:43.436Z,95.60
2023-05-09T19:17:10.776Z,96.00
2023-05-09T19:19:37.423Z,96.10
2023-05-09T19:22:04.827Z,96.30
2023-05-09T19:24:32.833Z,96.50
2023-05-09T19:26:59.548Z,96.00
2023-05-09T19:29:26.277Z,96.50
2023-05-09T19:31:52.966Z,95.90
2023-05-09T19:34:19.752Z,95.80
2023-05-09T19:36:46.436Z,96.10
2023-05-09T19:39:13.094Z,96.20
2023-05-09T19:41:40.542Z,95.70
2023-05-09T19:44:07.373Z,96.00
2023-05-09T19:46:35.286Z,96.10
2023-05-09T19:49:02.230Z,96.50
2023-05-09T19:51:29.521Z,96.30
2023-05-09T19:53:56.706Z,96.70
2023-05-09T19:56:23.791Z,96.50
2023-05-09T19:58:50.841Z,96.30
2023-05-09T20:01:19.218Z,96.80
2023-05-09T20:03:52.152Z,96.70
2023-05-09T20:06:19.297Z,96.50
2023-05-09T20:08:46.960Z,97.00
2023-05-09T20:11:14.628Z,97.10
2023-05-09T20:13:42.237Z,97.00
2023-05-09T20:16:09.123Z,97.30
2023-05-09T20:18:35.909Z,97.10
2023-05-09T20:21:03.434Z,97.30
2023-05-09T20:23:31.098Z,97.30
2023-05-09T20:25:58.175Z,97.30
2023-05-09T20:28:25.156Z,97.50
2023-05-09T20:30:51.840Z,97.40
2023-05-09T20:33:19.010Z,97.20
2023-05-09T20:35:45.734Z,97.40
2023-05-09T20:38:12.463Z,98.10
2023-05-09T20:40:41.039Z,98.00
2023-05-09T20:43:07.748Z,98.10
2023-05-09T20:45:37.145Z,98.20
2023-05-09T20:48:05.609Z,98.00
2023-05-09T20:50:32.427Z,98.00
2023-05-09T20:52:59.130Z,97.80
2023-05-09T20:55:25.752Z,98.00
2023-05-09T20:57:52.432Z,98.00
2023-05-09T21:00:19.614Z,98.20
2023-05-09T21:02:46.347Z,98.20
2023-05-09T21:05:13.082Z,97.90
2023-05-09T21:07:39.719Z,98.00
2023-05-09T21:10:07.000Z,97.90
2023-05-09T21:12:33.623Z,98.50
2023-05-09T21:15:00.382Z,98.00
2023-05-09T21:17:27.245Z,98.50
2023-05-09T21:19:53.936Z,98.50
2023-05-09T21:22:20.611Z,98.50
2023-05-09T21:24:47.353Z,98.50
2023-05-09T21:27:14.251Z,98.50
2023-05-09T21:29:40.983Z,98.50
2023-05-09T21:32:07.857Z,98.50
2023-05-09T21:34:34.629Z,98.50
2023-05-09T21:37:01.294Z,98.50
2023-05-09T21:39:27.998Z,98.50
2023-05-09T21:41:54.728Z,98.50
2023-05-09T21:44:21.382Z,98.50
2023-05-09T21:46:48.097Z,98.50
2023-05-09T21:49:16.895Z,98.50
2023-05-09T21:51:43.632Z,98.50
2023-05-09T21:54:10.965Z,98.50
2023-05-09T21:56:37.875Z,98.50
2023-05-09T21:59:04.873Z,98.50
2023-05-09T22:01:31.763Z,98.50
2023-05-09T22:03:58.724Z,98.50
2023-05-09T22:06:25.610Z,98.50
2023-05-09T22:08:52.276Z,98.50
2023-05-09T22:11:19.037Z,98.50
2023-05-09T22:13:45.714Z,98.50
2023-05-09T22:16:13.234Z,98.50
2023-05-09T22:18:40.077Z,98.50
2023-05-09T22:21:07.010Z,98.50
2023-05-09T22:23:33.700Z,98.50
2023-05-09T22:26:00.420Z,98.50
2023-05-09T22:28:27.137Z,98.50
2023-05-09T22:30:53.775Z,98.50
2023-05-09T22:33:20.729Z,98.50
2023-05-09T22:35:47.894Z,98.50
2023-05-09T22:38:14.622Z,98.50
2023-05-09T22:40:41.597Z,98.50
2023-05-09T22:43:10.478Z,98.50
2023-05-09T22:45:37.257Z,98.50
2023-05-09T22:48:04.170Z,98.50
2023-05-09T22:50:31.035Z,98.50
2023-05-09T22:52:57.765Z,98.50
2023-05-09T22:55:24.458Z,98.50
2023-05-09T22:57:51.210Z,98.50
2023-05-09T23:00:18.426Z,98.50
2023-05-09T23:02:45.459Z,98.50
2023-05-09T23:05:12.249Z,98.50
2023-05-09T23:07:39.009Z,98.50
2023-05-09T23:10:05.995Z,98.50
2023-05-09T23:12:32.746Z,98.50
2023-05-09T23:14:59.496Z,98.50
2023-05-09T23:17:26.264Z,98.50
2023-05-09T23:19:53.053Z,98.50
2023-05-09T23:22:19.722Z,98.50
2023-05-09T23:24:46.480Z,98.50
2023-05-09T23:27:13.157Z,98.50
2023-05-09T23:29:39.831Z,98.50
2023-05-09T23:32:06.673Z,98.50
2023-05-09T23:34:33.782Z,98.50
2023-05-09T23:37:00.500Z,98.50
2023-05-09T23:39:27.900Z,98.50
2023-05-09T23:41:54.586Z,98.50
2023-05-09T23:44:21.290Z,98.50
2023-05-09T23:46:48.026Z,98.50
2023-05-09T23:49:14.808Z,98.50
2023-05-09T23:51:41.557Z,98.50
2023-05-09T23:54:08.573Z,98.50
2023-05-09T23:56:35.477Z,98.50
2023-05-09T23:59:02.153Z,98.50
